Terminal Aerodrome Forecast
Issued by NWS Rapid City, SD

Home | Current Version | Previous Version | Text Only | Print | Product List | Glossary Off
Versions: 1 2 3 4 5 6 7 8 9 10 11 12 13 14 15 16 17 18 19 20 21 22 23 24 25 26 27 28 29 30 31 32 33 34

941
FTUS43 KUNR 121120
TAFRAP
TAF
KRAP 121120Z 1212/1312 02011KT P6SM OVC007
     FM121700 12010KT P6SM OVC010
     FM130200 13007KT P6SM OVC025
     FM130600 14009KT 1SM -FZDZ BR OVC004=

USA.gov is the U.S. government's official web portal to all federal, state and local government web resources and services.